Chisago Lake, Minnesota
Current Conditions -  °F | °C
As of 6:35 PM on Monday 24 Nov 2014 (Local Time) from KOEO Reporting Station
Overcast Overcast  
Wind Chill:   Ceiling: 2400
Heat Index: 20°   Visibility: 10mi
Dew Point: 16°   Wind: 14mph
Humidity: 82%   Direction: 310°NW
Pressure: 29.74"   Gusts: 20mph
Location:  45.4307°N, 92.7947°W
Report Text: KOEO 250035Z AUTO 31012G17KT 10SM OVC024 M06/M09 A2974 RMK AO2 T10651091
Loading
Personal Weather Stations






























Interactive Weather Map New forecast layout! Learn more

10-Day Weather Forecast

Advertisements
Track Severe Weather on mobile